Professor Urbano Ernesto Stumpf Airport

SBSJ · São Paulo, 巴西

罗盘
风向 的 风向 110° Professor Urbano Ernesto Stumpf Airport 16/34
风: 7 kt, 3 beaufort

6 kt

3 kt
改变
0 ft 1.000 2.000 3.000 4.000 5.000
Cloud Cloud
FEW 3.600
METAR SBSJ 270000Z 11007KT 9999 FEW036 24/21 Q1018

METAR Professor Urbano Ernesto Stumpf Airport - SBSJ/SJK

Professor Urbano Ernesto Stumpf Airport是,巴西中的中型机场。 该机场位于纬度-23,22825和经度-45,86275。 该机场有一条跑道: 16/34. 本场的ICAO机场代码为SBSJ。 该机场的IATA代码为SJK。 机场在Brasilia FIR中。

该航空气象观测是针对Professor Urbano Ernesto Stumpf Airport在2024年2月26日 21:00, 当地时间进行的。

机场观察

风向为110°,速度为7 kt。

可见度为10 km 或者更多。

有几云在3.600 ft的高度。 没有观察到天花板。

温度和风寒是24 °C。 露点为21 °C,相对湿度为83%。 海平面上的气压为1018 hPa (QNH)。

白天

今天,太阳从05:57升起,在18:34降落。 这适用于Professor Urbano Ernesto Stumpf Airport,世界夏令时可能有所不同。 当地时间与世界标准时间之间的时差为-3 小时。 当前,没有夏令时有效。

公司介绍

在这个机场,你可以找到飞行学校。 本场上唯一已知的公司是Aeroclube de Sao Jose dos Campos。

体会

到Vliegles.nl去找飞行课程,跳伞和其他飞行体验。 浏览页面,了解Professor Urbano Ernesto Stumpf Airport附近所有可用的活动。 你也可以使用搜索功能来寻找你所在地附近的特定飞行课程、跳伞或其他飞行体验。

跑道

Id 标题 侧风 逆风 侧风 %
16/34 135°-315° 3 kt 6 kt 42 %

逆风成分最大的方向会被突出显示,并用于横风计算。 这并不一定意味着这个方向在使用。

乌云

3.600 ft FEW 几云

温度 & 天气

温度 24 °C
露点 21 °C
相对湿度 83%
Kp-index 2 (0-9)

白天

日出
05:57 (8:19)
中午
12:16
日落
18:34

小工具

你想在你的网站上有一个关于Professor Urbano Ernesto Stumpf Airport的当前航空天气(METAR)的小部件吗?

显示HTML代码
?>